• Join FlightAware (Why Join?)
  • Login
  • US Flag 
09:28AM EST


 

Airport Tracker/Info


-or-


 

Live Flight TrackerFlight Track Log ✈ EGF2805 ✈ 06-May-2014 ✈ KORD - KFWA

Flight Track Log - Related Links

Times and Time Zones

All times are in EDT time to prevent confusion due to time zone crossing. See the EGF2805 flight status page for this flight to view local times or setup timezone preferences in your user account.

Time Position Orientation Groundspeed Altitude Reporting Facility
EDT Latitude Longitude Course Direction KTS MPH feet Rate Location/Type
05:17PM 41.7346 -87.2200 115° Southeast  Level Estimated
05:18PM 41.6993 -87.1222 116° Southeast  Level Estimated
05:19PM 41.6639 -87.0246 116° Southeast  Level Estimated
05:20PM 41.6284 -86.9270 116° Southeast  Level Estimated
05:21PM 41.5929 -86.8296 116° Southeast  Level Estimated
05:22PM 41.5573 -86.7322 116° Southeast  Level Estimated
05:23PM 41.5216 -86.6350 116° Southeast  Level Estimated
05:24PM 41.4858 -86.5379 116° Southeast  Level Estimated
05:25PM 41.4499 -86.4409 116° Southeast  Level Estimated
05:26PM 41.4140 -86.3439 116° Southeast  Level Estimated
05:27PM 41.3779 -86.2471 116° Southeast  Level Estimated
05:28PM 41.3418 -86.1505 116° Southeast  Level Estimated
05:29PM 41.3056 -86.0539 116° Southeast  Level Estimated
05:30PM 41.2693 -85.9574 117° Southeast  Level Estimated
05:31PM 41.2330 -85.8610 117° Southeast  Level Estimated
05:32PM 41.1965 -85.7647 117° Southeast  Level Estimated
05:33PM 41.1600 -85.6686 117° Southeast  Level Estimated
05:34PM 41.1234 -85.5725 117° Southeast  Level Estimated
05:35PM 41.0868 -85.4766 117° Southeast  Level Estimated
05:36PM 41.0500 -85.3808 117° Southeast  Level Estimated
05:37PM 41.0132 -85.2850 117° Southeast  Level Estimated
05:38PM 40.9785 -85.1952 117° Southeast  Level Estimated
05:39PM 40.9785 -85.1952 North  Level Estimated